createdAt,value
2024-03-12T00:00:58.836Z,1421.00
2024-03-12T00:01:58.858Z,1415.00
2024-03-12T00:02:58.843Z,1423.00
2024-03-12T00:03:58.913Z,1424.00
2024-03-12T00:04:58.889Z,1424.00
2024-03-12T00:05:58.908Z,1419.00
2024-03-12T00:06:59.003Z,1422.00
2024-03-12T00:07:58.959Z,1415.00
2024-03-12T00:08:58.996Z,1424.00
2024-03-12T00:09:59.054Z,1423.00
2024-03-12T00:10:59.088Z,1418.00
2024-03-12T00:11:59.066Z,1423.00
2024-03-12T00:12:59.110Z,1415.00
2024-03-12T00:13:59.116Z,1419.00
2024-03-12T00:14:59.136Z,1422.00
2024-03-12T00:15:59.228Z,1416.00
2024-03-12T00:16:59.213Z,1415.00
2024-03-12T00:17:59.248Z,1415.00
2024-03-12T00:18:59.302Z,1407.00
2024-03-12T00:19:59.298Z,1410.00
2024-03-12T00:20:59.325Z,1417.00
2024-03-12T00:21:59.412Z,1409.00
2024-03-12T00:22:59.386Z,1407.00
2024-03-12T00:23:59.420Z,1416.00
2024-03-12T00:24:59.455Z,1404.00
2024-03-12T00:25:59.514Z,1410.00
2024-03-12T00:26:59.548Z,1413.00
2024-03-12T00:27:59.611Z,1409.00
2024-03-12T00:28:59.553Z,1409.00
2024-03-12T00:29:59.596Z,1399.00
2024-03-12T00:30:59.666Z,1404.00
2024-03-12T00:31:59.634Z,1401.00
2024-03-12T00:32:59.752Z,1400.00
2024-03-12T00:33:59.704Z,1405.00
2024-03-12T00:34:59.643Z,1406.00
2024-03-12T00:35:59.645Z,1398.00
2024-03-12T00:36:59.734Z,1408.00
2024-03-12T00:37:59.642Z,1400.00
2024-03-12T00:38:59.654Z,1402.00
2024-03-12T00:39:59.680Z,1389.00
2024-03-12T00:40:59.647Z,1393.00
2024-03-12T00:41:59.675Z,1396.00
2024-03-12T00:42:59.742Z,1408.00
2024-03-12T00:43:59.676Z,1398.00
2024-03-12T00:44:59.666Z,1405.00
2024-03-12T00:45:59.657Z,1397.00
2024-03-12T00:46:59.673Z,1397.00
2024-03-12T00:47:59.670Z,1399.00
2024-03-12T00:48:59.715Z,1399.00
2024-03-12T00:49:59.904Z,1401.00
2024-03-12T00:50:59.673Z,1400.00
2024-03-12T00:51:59.701Z,1397.00
2024-03-12T00:52:59.663Z,1398.00
2024-03-12T00:53:59.685Z,1399.00
2024-03-12T00:54:59.762Z,1399.00
2024-03-12T00:55:59.682Z,1398.00
2024-03-12T00:56:59.671Z,1402.00
2024-03-12T00:58:00.038Z,1397.00
2024-03-12T00:58:59.693Z,1401.00
2024-03-12T00:59:59.693Z,1395.00
2024-03-12T01:00:59.778Z,1398.00
2024-03-12T01:01:59.727Z,1405.00
2024-03-12T01:02:59.768Z,1399.00
2024-03-12T01:03:59.742Z,1388.00
2024-03-12T01:04:59.700Z,1392.00
2024-03-12T01:05:59.697Z,1395.00
2024-03-12T01:06:59.737Z,1393.00
2024-03-12T01:07:59.710Z,1389.00
2024-03-12T01:08:59.704Z,1382.00
2024-03-12T01:09:59.736Z,1386.00
2024-03-12T01:10:59.832Z,1393.00
2024-03-12T01:11:59.726Z,1386.00
2024-03-12T01:12:59.887Z,1381.00
2024-03-12T01:13:59.793Z,1388.00
2024-03-12T01:14:59.822Z,1393.00
2024-03-12T01:15:59.895Z,1381.00
2024-03-12T01:16:59.878Z,1393.00
2024-03-12T01:17:59.921Z,1379.00
2024-03-12T01:18:59.950Z,1383.00
2024-03-12T01:19:59.968Z,1380.00
2024-03-12T01:21:00.013Z,1381.00
2024-03-12T01:22:00.087Z,1388.00
2024-03-12T01:23:00.082Z,1382.00
2024-03-12T01:24:00.146Z,1372.00
2024-03-12T01:25:00.246Z,1372.00
2024-03-12T01:26:00.136Z,1374.00
2024-03-12T01:27:00.133Z,1376.00
2024-03-12T01:28:00.180Z,1379.00
2024-03-12T01:29:00.160Z,1390.00
2024-03-12T01:30:00.185Z,1385.00
2024-03-12T01:31:00.187Z,1383.00
2024-03-12T01:32:00.139Z,1381.00
2024-03-12T01:33:00.216Z,1379.00
2024-03-12T01:34:00.217Z,1379.00
2024-03-12T01:35:00.167Z,1379.00
2024-03-12T01:36:00.171Z,1382.00
2024-03-12T01:37:00.227Z,1383.00
2024-03-12T01:38:00.176Z,1382.00
2024-03-12T01:39:00.172Z,1379.00
2024-03-12T01:40:00.352Z,1383.00
2024-03-12T01:41:00.170Z,1379.00
2024-03-12T01:42:00.174Z,1378.00
2024-03-12T01:43:00.206Z,1379.00
2024-03-12T01:44:00.170Z,1379.00
2024-03-12T01:45:00.247Z,1378.00
2024-03-12T01:46:00.257Z,1369.00
2024-03-12T01:47:00.191Z,1373.00
2024-03-12T01:48:00.298Z,1369.00
2024-03-12T01:49:00.328Z,1374.00
2024-03-12T01:50:00.203Z,1370.00
2024-03-12T01:51:00.183Z,1382.00
2024-03-12T01:52:00.309Z,1375.00
2024-03-12T01:53:00.212Z,1372.00
2024-03-12T01:54:00.295Z,1373.00
2024-03-12T01:55:00.346Z,1375.00
2024-03-12T01:56:00.330Z,1364.00
2024-03-12T01:57:00.371Z,1366.00
2024-03-12T01:58:00.449Z,1371.00
2024-03-12T01:59:00.440Z,1364.00
2024-03-12T02:00:00.502Z,1363.00
2024-03-12T02:01:00.593Z,1366.00
2024-03-12T02:02:00.567Z,1367.00
2024-03-12T02:03:00.579Z,1369.00
2024-03-12T02:04:00.699Z,1365.00
2024-03-12T02:05:00.642Z,1367.00
2024-03-12T02:06:00.714Z,1372.00
2024-03-12T02:07:00.848Z,1358.00
2024-03-12T02:08:00.749Z,1360.00
2024-03-12T02:09:00.794Z,1363.00
2024-03-12T02:10:01.068Z,1366.00
2024-03-12T02:11:00.861Z,1362.00
2024-03-12T02:12:00.893Z,1366.00
2024-03-12T02:13:01.017Z,1358.00
2024-03-12T02:14:00.980Z,1365.00
2024-03-12T02:15:00.995Z,1350.00
2024-03-12T02:16:01.102Z,1355.00
2024-03-12T02:17:01.072Z,1351.00
2024-03-12T02:18:01.157Z,1351.00
2024-03-12T02:19:01.225Z,1351.00
2024-03-12T02:20:01.101Z,1355.00
2024-03-12T02:21:01.080Z,1354.00
2024-03-12T02:22:01.180Z,1358.00
2024-03-12T02:23:01.102Z,1359.00
2024-03-12T02:24:01.095Z,1355.00
2024-03-12T02:25:01.226Z,1354.00
2024-03-12T02:26:01.094Z,1355.00
2024-03-12T02:27:01.111Z,1357.00
2024-03-12T02:28:01.137Z,1366.00
2024-03-12T02:29:01.106Z,1353.00
2024-03-12T02:30:01.169Z,1357.00
2024-03-12T02:31:01.283Z,1355.00
2024-03-12T02:32:01.109Z,1357.00
2024-03-12T02:33:01.206Z,1358.00
2024-03-12T02:34:01.269Z,1353.00
2024-03-12T02:35:01.109Z,1353.00
2024-03-12T02:36:01.132Z,1353.00
2024-03-12T02:37:01.224Z,1354.00
2024-03-12T02:38:01.112Z,1353.00
2024-03-12T02:39:01.116Z,1356.00
2024-03-12T02:40:01.152Z,1349.00
2024-03-12T02:41:01.128Z,1346.00
2024-03-12T02:42:01.136Z,1362.00
2024-03-12T02:43:01.227Z,1346.00
2024-03-12T02:44:01.133Z,1354.00
2024-03-12T02:45:01.165Z,1352.00
2024-03-12T02:46:01.204Z,1352.00
2024-03-12T02:47:01.160Z,1341.00
2024-03-12T02:48:01.185Z,1350.00
2024-03-12T02:49:01.312Z,1347.00
2024-03-12T02:50:01.164Z,1346.00
2024-03-12T02:51:01.147Z,1336.00
2024-03-12T02:52:01.247Z,1347.00
2024-03-12T02:53:01.157Z,1333.00
2024-03-12T02:54:01.187Z,1338.00
2024-03-12T02:55:01.449Z,1333.00
2024-03-12T02:56:01.268Z,1336.00
2024-03-12T02:57:01.287Z,1337.00
2024-03-12T02:58:01.363Z,1337.00
2024-03-12T02:59:01.288Z,1339.00
2024-03-12T03:00:01.433Z,1339.00
2024-03-12T03:01:01.393Z,1337.00
2024-03-12T03:02:01.345Z,1337.00
2024-03-12T03:03:01.292Z,1337.00
2024-03-12T03:04:01.364Z,1338.00
2024-03-12T03:05:01.307Z,1337.00
2024-03-12T03:06:01.343Z,1338.00
2024-03-12T03:07:01.413Z,1337.00
2024-03-12T03:08:01.302Z,1342.00
2024-03-12T03:09:01.319Z,1342.00
2024-03-12T03:10:01.539Z,1339.00
2024-03-12T03:11:01.381Z,1339.00
2024-03-12T03:12:01.342Z,1340.00
2024-03-12T03:13:01.362Z,1342.00
2024-03-12T03:14:01.358Z,1339.00
2024-03-12T03:15:01.341Z,1339.00
2024-03-12T03:16:01.355Z,1337.00
2024-03-12T03:17:01.329Z,1344.00
2024-03-12T03:18:01.382Z,1343.00
2024-03-12T03:19:01.431Z,1337.00
2024-03-12T03:20:01.333Z,1343.00
2024-03-12T03:21:01.358Z,1336.00
2024-03-12T03:22:01.430Z,1338.00
2024-03-12T03:23:01.348Z,1334.00
2024-03-12T03:24:01.377Z,1334.00
2024-03-12T03:25:01.473Z,1335.00
2024-03-12T03:26:01.346Z,1329.00
2024-03-12T03:27:01.356Z,1323.00
2024-03-12T03:28:01.402Z,1337.00
2024-03-12T03:29:01.375Z,1331.00
2024-03-12T03:30:01.483Z,1328.00
2024-03-12T03:31:01.691Z,1326.00
2024-03-12T03:32:01.428Z,1332.00
2024-03-12T03:33:01.465Z,1321.00
2024-03-12T03:34:01.534Z,1328.00
2024-03-12T03:35:01.528Z,1330.00
2024-03-12T03:36:01.533Z,1331.00
2024-03-12T03:37:01.769Z,1318.00
2024-03-12T03:38:01.621Z,1320.00
2024-03-12T03:39:01.655Z,1326.00
2024-03-12T03:40:01.738Z,1322.00
2024-03-12T03:41:01.720Z,1322.00
2024-03-12T03:42:01.783Z,1317.00
2024-03-12T03:43:01.836Z,1320.00
2024-03-12T03:44:01.849Z,1317.00
2024-03-12T03:45:01.911Z,1319.00
2024-03-12T03:46:01.957Z,1325.00
2024-03-12T03:47:01.971Z,1315.00
2024-03-12T03:48:02.021Z,1326.00
2024-03-12T03:49:02.104Z,1317.00
2024-03-12T03:50:02.095Z,1308.00
2024-03-12T03:51:02.112Z,1308.00
2024-03-12T03:52:02.260Z,1311.00
2024-03-12T03:53:02.199Z,1312.00
2024-03-12T03:54:02.253Z,1320.00
2024-03-12T03:55:02.323Z,1309.00
2024-03-12T03:56:02.302Z,1315.00
2024-03-12T03:57:02.341Z,1310.00
2024-03-12T03:58:02.460Z,1304.00
2024-03-12T03:59:02.405Z,1304.00
2024-03-12T04:00:02.453Z,1311.00
2024-03-12T04:01:02.571Z,1304.00
2024-03-12T04:02:02.575Z,1311.00
2024-03-12T04:03:02.574Z,1298.00
2024-03-12T04:04:02.611Z,1298.00
2024-03-12T04:05:02.569Z,1300.00
2024-03-12T04:06:02.566Z,1304.00
2024-03-12T04:07:02.594Z,1305.00
2024-03-12T04:08:02.583Z,1307.00
2024-03-12T04:09:02.576Z,1308.00
2024-03-12T04:10:02.622Z,1300.00
2024-03-12T04:11:02.597Z,1299.00
2024-03-12T04:12:02.589Z,1297.00
2024-03-12T04:13:02.633Z,1299.00
2024-03-12T04:14:02.595Z,1300.00
2024-03-12T04:15:02.595Z,1297.00
2024-03-12T04:16:02.618Z,1302.00
2024-03-12T04:17:02.596Z,1289.00
2024-03-12T04:18:02.652Z,1297.00
2024-03-12T04:19:02.740Z,1295.00
2024-03-12T04:20:02.601Z,1296.00
2024-03-12T04:21:02.643Z,1292.00
2024-03-12T04:22:02.675Z,1298.00
2024-03-12T04:23:02.736Z,1303.00
2024-03-12T04:24:02.769Z,1289.00
2024-03-12T04:25:02.872Z,1292.00
2024-03-12T04:26:02.826Z,1288.00
2024-03-12T04:27:02.845Z,1298.00
2024-03-12T04:28:02.947Z,1296.00
2024-03-12T04:29:02.904Z,1292.00
2024-03-12T04:30:02.857Z,1287.00
2024-03-12T04:31:02.911Z,1291.00
2024-03-12T04:32:02.859Z,1294.00
2024-03-12T04:33:02.945Z,1300.00
2024-03-12T04:34:02.976Z,1300.00
2024-03-12T04:35:02.895Z,1297.00
2024-03-12T04:36:02.883Z,1290.00
2024-03-12T04:37:02.955Z,1294.00
2024-03-12T04:38:02.888Z,1295.00
2024-03-12T04:39:02.878Z,1295.00
2024-03-12T04:40:02.963Z,1297.00
2024-03-12T04:41:02.914Z,1298.00
2024-03-12T04:42:02.917Z,1295.00
2024-03-12T04:43:02.976Z,1287.00
2024-03-12T04:44:10.555Z,600.00
2024-03-12T04:45:10.566Z,600.00
2024-03-12T04:46:10.611Z,600.00
2024-03-12T04:47:10.557Z,600.00
2024-03-12T04:48:10.601Z,600.00
2024-03-12T04:49:10.642Z,601.00
2024-03-12T04:50:10.577Z,607.00
2024-03-12T04:51:10.577Z,603.00
2024-03-12T04:52:10.617Z,604.00
2024-03-12T04:53:10.571Z,603.00
2024-03-12T04:54:10.579Z,600.00
2024-03-12T04:55:10.640Z,605.00
2024-03-12T04:56:10.583Z,604.00
2024-03-12T04:57:10.575Z,602.00
2024-03-12T04:58:10.615Z,603.00
2024-03-12T04:59:10.573Z,605.00
2024-03-12T05:00:10.587Z,606.00
2024-03-12T05:01:10.635Z,606.00
2024-03-12T05:02:10.578Z,606.00
2024-03-12T05:03:10.583Z,604.00
2024-03-12T05:04:15.795Z,607.00
2024-03-12T05:05:11.593Z,606.00
2024-03-12T05:06:10.606Z,602.00
2024-03-12T05:07:10.689Z,606.00
2024-03-12T05:08:10.586Z,606.00
2024-03-12T05:09:10.600Z,605.00
2024-03-12T05:10:10.643Z,607.00
2024-03-12T05:11:10.625Z,605.00
2024-03-12T05:12:10.603Z,601.00
2024-03-12T05:13:10.691Z,603.00
2024-03-12T05:14:10.620Z,600.00
2024-03-12T05:15:10.838Z,603.00
2024-03-12T05:16:10.675Z,604.00
2024-03-12T05:17:10.602Z,604.00
2024-03-12T05:18:10.678Z,608.00
2024-03-12T05:19:10.637Z,607.00
2024-03-12T05:20:10.845Z,604.00
2024-03-12T05:21:10.615Z,600.00
2024-03-12T05:22:10.703Z,605.00
2024-03-12T05:23:10.623Z,601.00
2024-03-12T05:24:10.632Z,602.00
2024-03-12T05:25:10.941Z,604.00
2024-03-12T05:26:10.663Z,604.00
2024-03-12T05:27:10.682Z,603.00
2024-03-12T05:28:11.219Z,605.00
2024-03-12T05:29:10.664Z,605.00
2024-03-12T05:30:10.678Z,603.00
2024-03-12T05:31:10.736Z,605.00
2024-03-12T05:32:10.699Z,605.00
2024-03-12T05:33:10.786Z,604.00
2024-03-12T05:34:10.705Z,606.00
2024-03-12T05:35:10.683Z,606.00
2024-03-12T05:36:10.883Z,607.00
2024-03-12T05:37:10.706Z,607.00
2024-03-12T05:38:10.720Z,604.00
2024-03-12T05:39:10.712Z,605.00
2024-03-12T05:40:10.742Z,607.00
2024-03-12T05:41:10.698Z,605.00
2024-03-12T05:42:10.708Z,605.00
2024-03-12T05:43:10.785Z,607.00
2024-03-12T05:44:10.744Z,605.00
2024-03-12T05:45:10.792Z,605.00
2024-03-12T05:46:10.807Z,607.00
2024-03-12T05:47:10.870Z,608.00
2024-03-12T05:48:11.146Z,601.00
2024-03-12T05:49:11.177Z,607.00
2024-03-12T05:50:10.905Z,604.00
2024-03-12T05:51:10.916Z,602.00
2024-03-12T05:52:11.030Z,605.00
2024-03-12T05:53:10.978Z,602.00
2024-03-12T05:54:11.087Z,607.00
2024-03-12T05:55:11.090Z,603.00
2024-03-12T05:56:13.438Z,605.00
2024-03-12T05:57:11.082Z,607.00
2024-03-12T05:58:11.087Z,605.00
2024-03-12T05:59:11.084Z,603.00
2024-03-12T06:00:11.124Z,604.00
2024-03-12T06:01:11.185Z,605.00
2024-03-12T06:02:11.133Z,606.00
2024-03-12T06:03:11.090Z,606.00
2024-03-12T06:04:11.152Z,605.00
2024-03-12T06:05:11.095Z,605.00
2024-03-12T06:06:11.103Z,608.00
2024-03-12T06:07:11.174Z,603.00
2024-03-12T06:08:11.120Z,603.00
2024-03-12T06:09:11.113Z,603.00
2024-03-12T06:10:11.434Z,604.00
2024-03-12T06:11:11.167Z,604.00
2024-03-12T06:12:11.106Z,605.00
2024-03-12T06:13:11.178Z,601.00
2024-03-12T06:14:11.109Z,603.00
2024-03-12T06:15:11.130Z,602.00
2024-03-12T06:16:11.189Z,603.00
2024-03-12T06:17:11.110Z,606.00
2024-03-12T06:18:11.139Z,604.00
2024-03-12T06:19:11.236Z,605.00
2024-03-12T06:20:11.690Z,605.00
2024-03-12T06:21:11.117Z,606.00
2024-03-12T06:22:11.182Z,603.00
2024-03-12T06:23:11.123Z,605.00
2024-03-12T06:24:11.135Z,607.00
2024-03-12T06:25:11.314Z,603.00
2024-03-12T06:26:11.137Z,603.00
2024-03-12T06:27:11.134Z,604.00
2024-03-12T06:28:11.271Z,603.00
2024-03-12T06:29:11.148Z,605.00
2024-03-12T06:30:11.164Z,605.00
2024-03-12T06:31:11.175Z,604.00
2024-03-12T06:32:11.144Z,600.00
2024-03-12T06:33:11.159Z,602.00
2024-03-12T06:34:11.196Z,600.00
2024-03-12T06:35:11.197Z,600.00
2024-03-12T06:36:11.158Z,601.00
2024-03-12T06:37:11.212Z,601.00
2024-03-12T06:38:11.157Z,600.00
2024-03-12T06:39:11.165Z,599.00
2024-03-12T06:40:11.262Z,601.00
2024-03-12T06:41:11.161Z,600.00
2024-03-12T06:42:11.187Z,600.00
2024-03-12T06:43:11.263Z,602.00
2024-03-12T06:44:11.187Z,601.00
2024-03-12T06:45:11.205Z,601.00
2024-03-12T06:46:11.442Z,600.00
2024-03-12T06:47:11.327Z,606.00
2024-03-12T06:48:11.206Z,603.00
2024-03-12T06:49:11.312Z,604.00
2024-03-12T06:50:11.329Z,610.00
2024-03-12T06:51:11.330Z,603.00
2024-03-12T06:52:11.383Z,601.00
2024-03-12T06:53:11.365Z,600.00
2024-03-12T06:54:11.391Z,599.00
2024-03-12T06:55:13.771Z,599.00
2024-03-12T06:56:11.438Z,583.00
2024-03-12T06:57:11.423Z,556.00
2024-03-12T06:58:11.517Z,540.00
2024-03-12T06:59:11.438Z,518.00
2024-03-12T07:00:11.432Z,501.00
2024-03-12T07:01:11.544Z,523.00
2024-03-12T07:02:11.512Z,544.00
2024-03-12T07:03:11.418Z,567.00
2024-03-12T07:04:11.508Z,602.00
2024-03-12T07:05:11.416Z,605.00
2024-03-12T07:06:11.446Z,608.00
2024-03-12T07:07:11.477Z,625.00
2024-03-12T07:08:11.460Z,634.00
2024-03-12T07:09:13.750Z,646.00
2024-03-12T07:10:11.605Z,646.00
2024-03-12T07:11:11.478Z,648.00
2024-03-12T07:12:11.439Z,653.00
2024-03-12T07:13:11.592Z,666.00
2024-03-12T07:14:11.443Z,713.00
2024-03-12T07:15:11.444Z,729.00
2024-03-12T07:16:11.852Z,756.00
2024-03-12T07:17:11.557Z,777.00
2024-03-12T07:18:11.497Z,781.00
2024-03-12T07:19:11.500Z,795.00
2024-03-12T07:20:11.469Z,808.00
2024-03-12T07:21:11.479Z,809.00
2024-03-12T07:22:11.541Z,824.00
2024-03-12T07:23:11.491Z,885.00
2024-03-12T07:24:11.473Z,979.00
2024-03-12T07:25:11.511Z,1087.00
2024-03-12T07:26:11.485Z,1097.00
2024-03-12T07:27:11.494Z,1106.00
2024-03-12T07:28:11.644Z,1099.00
2024-03-12T07:29:11.499Z,1102.00
2024-03-12T07:30:11.482Z,1118.00
2024-03-12T07:31:11.576Z,1113.00
2024-03-12T07:32:11.580Z,1106.00
2024-03-12T07:33:11.698Z,1124.00
2024-03-12T07:34:11.780Z,1117.00
2024-03-12T07:35:11.754Z,1111.00
2024-03-12T07:36:11.810Z,1058.00
2024-03-12T07:37:11.976Z,1028.00
2024-03-12T07:38:11.864Z,982.00
2024-03-12T07:39:11.899Z,971.00
2024-03-12T07:40:11.951Z,925.00
2024-03-12T07:41:11.936Z,875.00
2024-03-12T07:42:15.065Z,827.00
2024-03-12T07:43:12.042Z,759.00
2024-03-12T07:44:11.968Z,714.00
2024-03-12T07:45:11.966Z,677.00
2024-03-12T07:46:12.041Z,651.00
2024-03-12T07:47:12.008Z,627.00
2024-03-12T07:48:12.006Z,607.00
2024-03-12T07:49:12.706Z,589.00
2024-03-12T07:50:11.977Z,600.00
2024-03-12T07:51:11.984Z,606.00
2024-03-12T07:52:12.032Z,600.00
2024-03-12T07:53:12.021Z,599.00
2024-03-12T07:54:11.984Z,601.00
2024-03-12T07:55:12.018Z,601.00
2024-03-12T07:56:11.995Z,600.00
2024-03-12T07:57:12.006Z,600.00
2024-03-12T07:58:12.124Z,600.00
2024-03-12T07:59:12.019Z,601.00
2024-03-12T08:00:12.064Z,602.00
2024-03-12T08:01:12.285Z,604.00
2024-03-12T08:02:12.176Z,605.00
2024-03-12T08:03:12.170Z,597.00
2024-03-12T08:04:12.251Z,589.00
2024-03-12T08:05:12.338Z,579.00
2024-03-12T08:06:12.169Z,571.00
2024-03-12T08:07:12.301Z,574.00
2024-03-12T08:08:12.176Z,600.00
2024-03-12T08:09:12.183Z,601.00
2024-03-12T08:10:12.292Z,601.00
2024-03-12T08:11:12.303Z,602.00
2024-03-12T08:12:14.183Z,605.00
2024-03-12T08:13:12.335Z,599.00
2024-03-12T08:14:12.321Z,603.00
2024-03-12T08:15:12.320Z,602.00
2024-03-12T08:16:12.347Z,599.00
2024-03-12T08:17:12.367Z,607.00
2024-03-12T08:18:17.500Z,614.00
2024-03-12T08:19:13.496Z,600.00
2024-03-12T08:20:12.389Z,602.00
2024-03-12T08:21:12.379Z,591.00
2024-03-12T08:22:12.462Z,602.00
2024-03-12T08:23:12.368Z,593.00
2024-03-12T08:24:12.459Z,611.00
2024-03-12T08:25:12.764Z,623.00
2024-03-12T08:26:12.385Z,611.00
2024-03-12T08:27:12.403Z,625.00
2024-03-12T08:28:12.416Z,617.00
2024-03-12T08:29:12.390Z,617.00
2024-03-12T08:30:12.387Z,629.00
2024-03-12T08:32:12.436Z,638.00
2024-03-12T08:33:12.414Z,646.00
2024-03-12T08:34:12.430Z,651.00
2024-03-12T08:35:12.439Z,639.00
2024-03-12T08:36:12.533Z,645.00
2024-03-12T08:37:12.447Z,668.00
2024-03-12T08:38:12.502Z,674.00
2024-03-12T08:39:12.592Z,665.00
2024-03-12T08:40:12.761Z,659.00
2024-03-12T08:41:12.713Z,650.00
2024-03-12T08:42:12.753Z,645.00
2024-03-12T08:43:12.798Z,635.00
2024-03-12T08:44:12.801Z,630.00
2024-03-12T08:45:12.890Z,621.00
2024-03-12T08:46:12.942Z,613.00
2024-03-12T08:47:12.923Z,604.00
2024-03-12T08:48:12.976Z,601.00
2024-03-12T08:49:13.109Z,600.00
2024-03-12T08:50:13.068Z,602.00
2024-03-12T08:51:12.984Z,604.00
2024-03-12T08:52:13.020Z,600.00
2024-03-12T08:53:15.954Z,601.00
2024-03-12T08:54:13.019Z,607.00
2024-03-12T08:55:13.084Z,614.00
2024-03-12T08:56:13.025Z,617.00
2024-03-12T08:57:13.028Z,609.00
2024-03-12T08:58:13.099Z,613.00
2024-03-12T08:59:13.035Z,609.00
2024-03-12T09:00:13.038Z,625.00
2024-03-12T09:01:13.094Z,642.00
2024-03-12T09:02:13.096Z,673.00
2024-03-12T09:03:13.080Z,738.00
2024-03-12T09:04:13.158Z,780.00
2024-03-12T09:05:13.051Z,786.00
2024-03-12T09:06:13.038Z,821.00
2024-03-12T09:07:13.132Z,863.00
2024-03-12T09:08:13.050Z,870.00
2024-03-12T09:09:13.045Z,900.00
2024-03-12T09:10:13.434Z,957.00
2024-03-12T09:11:13.134Z,958.00
2024-03-12T09:12:13.066Z,969.00
2024-03-12T09:13:13.243Z,1003.00
2024-03-12T09:14:13.070Z,1073.00
2024-03-12T09:15:13.090Z,1189.00
2024-03-12T09:16:13.220Z,1228.00
2024-03-12T09:17:13.069Z,1252.00
2024-03-12T09:18:13.162Z,1313.00
2024-03-12T09:19:13.107Z,1328.00
2024-03-12T09:20:13.077Z,1365.00
2024-03-12T09:21:13.095Z,1392.00
2024-03-12T09:22:13.250Z,1429.00
2024-03-12T09:23:13.064Z,1431.00
2024-03-12T09:24:13.123Z,1441.00
2024-03-12T09:25:14.171Z,1467.00
2024-03-12T09:26:13.231Z,1516.00
2024-03-12T09:27:13.296Z,1602.00
2024-03-12T09:28:13.511Z,1642.00
2024-03-12T09:29:13.455Z,1661.00
2024-03-12T09:30:13.534Z,1676.00
2024-03-12T09:31:13.751Z,1688.00
2024-03-12T09:32:13.668Z,1723.00
2024-03-12T09:33:13.763Z,1742.00
2024-03-12T09:34:13.959Z,1772.00
2024-03-12T09:35:13.831Z,1784.00
2024-03-12T09:36:13.897Z,1802.00
2024-03-12T09:37:14.001Z,1804.00
2024-03-12T09:38:14.008Z,1815.00
2024-03-12T09:39:14.097Z,1815.00
2024-03-12T09:40:14.223Z,1837.00
2024-03-12T09:41:14.266Z,1839.00
2024-03-12T09:42:14.247Z,1825.00
2024-03-12T09:43:14.377Z,1828.00
2024-03-12T09:44:14.402Z,1817.00
2024-03-12T09:45:14.420Z,1823.00
2024-03-12T09:46:14.532Z,1817.00
2024-03-12T09:47:14.564Z,1799.00
2024-03-12T09:48:14.591Z,1766.00
2024-03-12T09:49:14.938Z,1753.00
2024-03-12T09:50:14.734Z,1738.00
2024-03-12T09:51:14.783Z,1677.00
2024-03-12T09:52:14.803Z,1608.00
2024-03-12T09:53:14.800Z,1547.00
2024-03-12T09:54:14.789Z,1478.00
2024-03-12T09:55:14.838Z,1433.00
2024-03-12T09:56:14.793Z,1382.00
2024-03-12T09:57:14.831Z,1338.00
2024-03-12T09:58:14.875Z,1278.00
2024-03-12T09:59:14.796Z,1248.00
2024-03-12T10:00:14.806Z,1208.00
2024-03-12T10:01:14.893Z,1163.00
2024-03-12T10:02:14.837Z,1150.00
2024-03-12T10:03:14.805Z,1133.00
2024-03-12T10:04:14.877Z,1094.00
2024-03-12T10:05:14.806Z,1119.00
2024-03-12T10:06:14.823Z,1120.00
2024-03-12T10:07:14.883Z,1124.00
2024-03-12T10:08:15.059Z,1132.00
2024-03-12T10:09:14.818Z,1162.00
2024-03-12T10:10:14.878Z,1195.00
2024-03-12T10:11:14.825Z,1216.00
2024-03-12T10:12:14.822Z,1240.00
2024-03-12T10:13:14.888Z,1275.00
2024-03-12T10:14:14.830Z,1289.00
2024-03-12T10:15:14.837Z,1310.00
2024-03-12T10:16:14.930Z,1345.00
2024-03-12T10:17:14.961Z,1358.00
2024-03-12T10:18:14.957Z,1387.00
2024-03-12T10:19:15.048Z,1407.00
2024-03-12T10:20:15.020Z,1426.00
2024-03-12T10:21:15.065Z,1454.00
2024-03-12T10:22:15.119Z,1471.00
2024-03-12T10:23:15.110Z,1500.00
2024-03-12T10:24:15.132Z,1519.00
2024-03-12T10:25:15.212Z,1521.00
2024-03-12T10:26:15.182Z,1541.00
2024-03-12T10:27:15.139Z,1576.00
2024-03-12T10:28:15.148Z,1643.00
2024-03-12T10:29:15.146Z,1744.00
2024-03-12T10:30:15.149Z,1775.00
2024-03-12T10:31:16.465Z,1793.00
2024-03-12T10:32:15.160Z,1813.00
2024-03-12T10:33:15.176Z,1830.00
2024-03-12T10:34:15.213Z,1841.00
2024-03-12T10:35:15.166Z,1853.00
2024-03-12T10:36:15.192Z,1877.00
2024-03-12T10:37:15.295Z,1875.00
2024-03-12T10:38:15.174Z,1867.00
2024-03-12T10:39:15.980Z,1868.00
2024-03-12T10:40:15.312Z,1865.00
2024-03-12T10:41:15.307Z,1870.00
2024-03-12T10:42:15.369Z,1869.00
2024-03-12T10:43:15.424Z,1839.00
2024-03-12T10:44:15.444Z,1773.00
2024-03-12T10:45:15.478Z,1715.00
2024-03-12T10:46:15.581Z,1621.00
2024-03-12T10:47:15.549Z,1540.00
2024-03-12T10:48:15.658Z,1433.00
2024-03-12T10:49:15.768Z,1374.00
2024-03-12T10:50:15.744Z,1319.00
2024-03-12T10:51:15.961Z,1295.00
2024-03-12T10:52:15.937Z,1271.00
2024-03-12T10:53:15.918Z,1271.00
2024-03-12T10:54:15.927Z,1272.00
2024-03-12T10:55:16.076Z,1276.00
2024-03-12T10:56:16.375Z,1288.00
2024-03-12T10:57:15.936Z,1302.00
2024-03-12T10:58:15.959Z,1333.00
2024-03-12T10:59:15.937Z,1352.00
2024-03-12T11:00:15.960Z,1353.00
2024-03-12T11:01:16.175Z,1372.00
2024-03-12T11:02:15.996Z,1371.00
2024-03-12T11:03:15.943Z,1403.00
2024-03-12T11:04:15.991Z,1438.00
2024-03-12T11:05:16.131Z,1437.00
2024-03-12T11:06:15.981Z,1455.00
2024-03-12T11:07:16.004Z,1472.00
2024-03-12T11:08:16.010Z,1483.00
2024-03-12T11:09:15.973Z,1505.00
2024-03-12T11:10:16.020Z,1506.00
2024-03-12T11:11:16.011Z,1510.00
2024-03-12T11:12:15.963Z,1520.00
2024-03-12T11:13:16.028Z,1535.00
2024-03-12T11:14:15.955Z,1564.00
2024-03-12T11:15:16.058Z,1570.00
2024-03-12T11:16:16.032Z,1575.00
2024-03-12T11:17:15.971Z,1593.00
2024-03-12T11:18:16.054Z,1592.00
2024-03-12T11:19:16.120Z,1583.00
2024-03-12T11:20:16.150Z,1596.00
2024-03-12T11:21:16.230Z,1609.00
2024-03-12T11:22:16.299Z,1608.00
2024-03-12T11:23:16.318Z,1593.00
2024-03-12T11:24:16.386Z,1604.00
2024-03-12T11:25:16.515Z,1591.00
2024-03-12T11:26:16.494Z,1590.00
2024-03-12T11:27:16.538Z,1579.00
2024-03-12T11:28:16.592Z,1578.00
2024-03-12T11:29:16.666Z,1560.00
2024-03-12T11:30:16.736Z,1559.00
2024-03-12T11:31:16.805Z,1561.00
2024-03-12T11:32:16.802Z,1567.00
2024-03-12T11:33:16.847Z,1576.00
2024-03-12T11:34:16.928Z,1590.00
2024-03-12T11:35:16.958Z,1599.00
2024-03-12T11:36:16.961Z,1593.00
2024-03-12T11:37:17.050Z,1609.00
2024-03-12T11:38:17.431Z,1610.00
2024-03-12T11:39:17.138Z,1615.00
2024-03-12T11:40:17.125Z,1607.00
2024-03-12T11:41:17.136Z,1595.00
2024-03-12T11:42:17.162Z,1594.00
2024-03-12T11:43:17.187Z,1594.00
2024-03-12T11:44:17.178Z,1598.00
2024-03-12T11:45:17.196Z,1605.00
2024-03-12T11:46:17.372Z,1618.00
2024-03-12T11:47:17.160Z,1642.00
2024-03-12T11:48:17.202Z,1645.00
2024-03-12T11:49:17.193Z,1651.00
2024-03-12T11:50:17.168Z,1641.00
2024-03-12T11:51:17.190Z,1640.00
2024-03-12T11:52:17.193Z,1641.00
2024-03-12T11:53:17.191Z,1641.00
2024-03-12T11:54:17.234Z,1643.00
2024-03-12T11:55:17.251Z,1648.00
2024-03-12T11:56:17.302Z,1663.00
2024-03-12T11:57:17.199Z,1658.00
2024-03-12T11:58:17.243Z,1671.00
2024-03-12T11:59:20.162Z,1662.00
2024-03-12T12:00:17.212Z,1650.00
2024-03-12T12:01:17.254Z,1655.00
2024-03-12T12:02:17.193Z,1641.00
2024-03-12T12:03:17.216Z,1639.00
2024-03-12T12:04:17.312Z,1624.00
2024-03-12T12:05:17.201Z,1629.00
2024-03-12T12:06:17.206Z,1616.00
2024-03-12T12:07:17.342Z,1623.00
2024-03-12T12:08:17.221Z,1624.00
2024-03-12T12:09:17.201Z,1632.00
2024-03-12T12:10:17.473Z,1632.00
2024-03-12T12:11:17.410Z,1636.00
2024-03-12T12:12:17.214Z,1641.00
2024-03-12T12:13:17.364Z,1646.00
2024-03-12T12:14:17.210Z,1666.00
2024-03-12T12:15:17.218Z,1665.00